Time;durP1;ratioP1;P1;durP2;ratioP2;P2;SDS_P1;SDS_P2;PMS_P1;PMS_P2;Temp;Humidity;BMP_temperature;BMP_pressure;BME280_temperature;BME280_humidity;BME280_pressure;Samples;Min_cycle;Max_cycle;Signal;HPM_P1;HPM_P2
2022/04/09 08:45:49;;;;;;;8.38;2.58;;;;;;;;;;5108799;27;20162;-60
2022/04/09 08:48:15;;;;;;;5.13;2.00;;;;;;;;;;5108530;28;20031;-67
2022/04/09 08:50:43;;;;;;;6.32;2.17;;;;;;;;;;5109624;28;20107;-66
2022/04/09 08:53:10;;;;;;;4.38;1.75;;;;;;;;;;5108962;28;20099;-64
2022/04/09 08:55:40;;;;;;;4.28;1.77;;;;;;;;;;5109659;28;20027;-66
2022/04/09 08:58:06;;;;;;;9.43;2.20;;;;;;;;;;5108573;28;20020;-63
2022/04/09 09:00:33;;;;;;;4.53;1.73;;;;;;;;;;5116173;28;20020;-64
2022/04/09 09:03:00;;;;;;;5.05;2.22;;;;;;;;;;5109699;28;20508;-65
2022/04/09 09:05:32;;;;;;;6.38;2.08;;;;;;;;;;5108831;28;20114;-63
2022/04/09 09:07:58;;;;;;;5.78;2.28;;;;;;;;;;5108082;28;20060;-63
2022/04/09 09:10:24;;;;;;;4.90;2.33;;;;;;;;;;5108506;28;20016;-63
2022/04/09 09:13:04;;;;;;;3.13;1.63;;;;;;;;;;5109435;28;20031;-63
2022/04/09 09:15:30;;;;;;;3.00;1.75;;;;;;;;;;5108920;28;20040;-62
2022/04/09 09:17:59;;;;;;;5.60;2.33;;;;;;;;;;5108992;28;20545;-62
2022/04/09 09:20:26;;;;;;;3.83;2.10;;;;;;;;;;5108455;28;20035;-61
2022/04/09 09:22:52;;;;;;;4.88;2.38;;;;;;;;;;5108940;28;20350;-65
2022/04/09 09:25:18;;;;;;;2.88;1.35;;;;;;;;;;5107698;28;20107;-62
2022/04/09 09:27:44;;;;;;;2.15;1.50;;;;;;;;;;5107391;28;20587;-65
2022/04/09 09:30:12;;;;;;;5.38;1.38;;;;;;;;;;5107705;28;20020;-66
2022/04/09 09:32:41;;;;;;;4.22;1.80;;;;;;;;;;5105689;28;20074;-67
2022/04/09 09:35:14;;;;;;;4.15;1.65;;;;;;;;;;5107209;28;20027;-59
2022/04/09 09:37:40;;;;;;;3.58;1.40;;;;;;;;;;5108206;28;20016;-69
2022/04/09 09:40:06;;;;;;;3.75;1.13;;;;;;;;;;5107993;28;20028;-60
2022/04/09 09:42:35;;;;;;;2.13;1.65;;;;;;;;;;5104378;28;20127;-66
2022/04/09 09:45:01;;;;;;;5.28;1.60;;;;;;;;;;5103968;28;20527;-66
2022/04/09 09:47:27;;;;;;;2.95;1.40;;;;;;;;;;5107287;28;20027;-71
2022/04/09 09:49:55;;;;;;;2.92;1.40;;;;;;;;;;5108854;28;20023;-65
2022/04/09 09:52:28;;;;;;;4.32;1.60;;;;;;;;;;5107753;28;20046;-68
2022/04/09 09:54:58;;;;;;;3.80;1.45;;;;;;;;;;5108050;28;20027;-66
2022/04/09 09:57:26;;;;;;;4.13;1.30;;;;;;;;;;5093799;28;20024;-62
2022/04/09 09:59:53;;;;;;;3.83;1.20;;;;;;;;;;5094954;28;20024;-68
2022/04/09 10:02:22;;;;;;;3.17;1.33;;;;;;;;;;5093390;28;20023;-67
2022/04/09 10:04:49;;;;;;;2.88;1.42;;;;;;;;;;5094256;28;20028;-67
2022/04/09 10:07:15;;;;;;;4.25;1.42;;;;;;;;;;5093392;28;20443;-67
2022/04/09 10:09:41;;;;;;;4.18;1.55;;;;;;;;;;5094312;28;20062;-59
2022/04/09 10:12:12;;;;;;;4.47;1.40;;;;;;;;;;5093808;28;20028;-62
2022/04/09 10:14:40;;;;;;;6.68;1.73;;;;;;;;;;5091954;28;20040;-60
2022/04/09 10:17:07;;;;;;;4.07;1.48;;;;;;;;;;5094318;28;20423;-61
2022/04/09 10:19:35;;;;;;;6.78;1.92;;;;;;;;;;5094372;28;20020;-60
2022/04/09 10:22:01;;;;;;;3.03;1.17;;;;;;;;;;5091646;28;20028;-59
2022/04/09 10:24:28;;;;;;;2.15;1.25;;;;;;;;;;5093520;28;20085;-59
2022/04/09 10:26:56;;;;;;;3.60;1.80;;;;;;;;;;5094354;28;20024;-58
2022/04/09 10:29:22;;;;;;;2.25;1.20;;;;;;;;;;5092430;28;20119;-59
2022/04/09 10:31:51;;;;;;;3.40;1.27;;;;;;;;;;5094136;28;20028;-58
2022/04/09 10:34:20;;;;;;;2.30;1.17;;;;;;;;;;5093530;28;20031;-58
2022/04/09 10:36:46;;;;;;;3.97;1.10;;;;;;;;;;5094085;28;20103;-59
2022/04/09 10:39:29;;;;;;;3.00;1.38;;;;;;;;;;5093452;28;20078;-58
2022/04/09 10:41:59;;;;;;;4.13;1.60;;;;;;;;;;5094193;28;20515;-58
2022/04/09 10:44:43;;;;;;;2.50;1.23;;;;;;;;;;5110395;28;20055;-58
2022/04/09 10:47:11;;;;;;;3.28;1.20;;;;;;;;;;5092623;28;20095;-59
2022/04/09 10:49:37;;;;;;;3.28;1.33;;;;;;;;;;5093558;28;20020;-58
2022/04/09 10:52:11;;;;;;;2.30;1.10;;;;;;;;;;5093745;28;20024;-58
2022/04/09 10:54:37;;;;;;;2.60;1.20;;;;;;;;;;5093829;28;20024;-58
2022/04/09 10:57:10;;;;;;;1.65;0.80;;;;;;;;;;5093492;28;20020;-58
2022/04/09 10:59:38;;;;;;;4.00;1.50;;;;;;;;;;5093774;28;20050;-57
2022/04/09 11:02:04;;;;;;;2.85;1.00;;;;;;;;;;5093292;28;20484;-60
2022/04/09 11:04:36;;;;;;;2.28;1.50;;;;;;;;;;5092405;28;20039;-56
2022/04/09 11:07:02;;;;;;;;;;;;;;;;;;5093136;28;20016;-59
2022/04/09 11:09:48;;;;;;;2.63;1.00;;;;;;;;;;5092139;28;19904;-58
2022/04/09 11:12:14;;;;;;;3.67;1.30;;;;;;;;;;5090298;28;20024;-58
2022/04/09 11:14:49;;;;;;;3.90;1.10;;;;;;;;;;5112505;28;20384;-57
2022/04/09 11:17:18;;;;;;;2.97;0.88;;;;;;;;;;5113114;28;20053;-59
2022/04/09 11:19:45;;;;;;;2.25;1.02;;;;;;;;;;5113697;28;20024;-58
2022/04/09 11:22:11;;;;;;;2.20;1.08;;;;;;;;;;5112984;28;20026;-59
2022/04/09 11:24:38;;;;;;;4.28;1.30;;;;;;;;;;5113540;28;20127;-58
2022/04/09 11:27:04;;;;;;;4.22;1.10;;;;;;;;;;5113725;28;20032;-58
2022/04/09 11:29:34;;;;;;;4.50;1.00;;;;;;;;;;5111445;28;20476;-58
2022/04/09 11:32:00;;;;;;;3.15;1.30;;;;;;;;;;5113567;28;20072;-58
2022/04/09 11:34:26;;;;;;;3.08;0.90;;;;;;;;;;5112415;28;20020;-58
2022/04/09 11:37:06;;;;;;;2.08;1.00;;;;;;;;;;5113458;28;20106;-58
2022/04/09 11:39:37;;;;;;;3.28;1.30;;;;;;;;;;5111635;27;20022;-58
2022/04/09 11:42:03;;;;;;;3.58;1.33;;;;;;;;;;5113088;28;20456;-58
2022/04/09 11:44:29;;;;;;;1.92;1.23;;;;;;;;;;5094921;28;20056;-58
2022/04/09 11:46:55;;;;;;;1.83;0.90;;;;;;;;;;5092310;28;20039;-59
2022/04/09 11:49:28;;;;;;;1.83;1.10;;;;;;;;;;5091317;28;20154;-54
2022/04/09 11:51:55;;;;;;;1.88;1.20;;;;;;;;;;5092469;28;20024;-53
2022/04/09 11:54:21;;;;;;;2.70;1.08;;;;;;;;;;5091572;28;20035;-56
2022/04/09 11:56:47;;;;;;;2.47;1.30;;;;;;;;;;5092714;28;20444;-51
2022/04/09 11:59:13;;;;;;;2.17;1.10;;;;;;;;;;5091656;28;20099;-54
2022/04/09 12:01:45;;;;;;;4.22;1.48;;;;;;;;;;5091730;28;20020;-59
2022/04/09 12:04:10;;;;;;;5.33;1.20;;;;;;;;;;5090882;28;20089;-61
2022/04/09 12:06:37;;;;;;;2.25;1.02;;;;;;;;;;5091354;28;20411;-60
2022/04/09 12:09:03;;;;;;;2.40;1.15;;;;;;;;;;5091238;28;20074;-49
2022/04/09 12:11:29;;;;;;;5.35;1.30;;;;;;;;;;5091500;28;20024;-50
2022/04/09 12:13:56;;;;;;;5.18;1.42;;;;;;;;;;5104860;28;20046;-50
2022/04/09 12:16:23;;;;;;;3.47;1.20;;;;;;;;;;5110680;28;20445;-50
2022/04/09 12:18:50;;;;;;;8.15;1.77;;;;;;;;;;5112381;28;20023;-48
2022/04/09 12:21:20;;;;;;;1.98;0.93;;;;;;;;;;5111720;28;20023;-51
2022/04/09 12:23:46;;;;;;;3.88;2.05;;;;;;;;;;5112494;28;20055;-51
2022/04/09 12:26:31;;;;;;;2.10;1.30;;;;;;;;;;5111789;28;20403;-53
2022/04/09 12:29:09;;;;;;;1.83;1.15;;;;;;;;;;5112886;28;20368;-51
2022/04/09 12:31:39;;;;;;;4.82;1.00;;;;;;;;;;5112483;28;20055;-54
2022/04/09 12:34:05;;;;;;;3.17;0.88;;;;;;;;;;5112555;28;20465;-49
2022/04/09 12:36:32;;;;;;;1.30;0.80;;;;;;;;;;5111503;28;20032;-51
2022/04/09 12:38:58;;;;;;;3.47;0.88;;;;;;;;;;5112519;28;20024;-49
2022/04/09 12:41:24;;;;;;;1.70;0.90;;;;;;;;;;5111394;28;20537;-51
2022/04/09 12:43:52;;;;;;;1.23;0.80;;;;;;;;;;5111638;28;20036;-50
2022/04/09 12:46:19;;;;;;;7.18;2.17;;;;;;;;;;5098577;28;20024;-48
2022/04/09 12:48:46;;;;;;;3.30;0.95;;;;;;;;;;5091975;28;20025;-51
2022/04/09 12:51:15;;;;;;;2.47;1.33;;;;;;;;;;5091276;28;20024;-63
2022/04/09 12:53:41;;;;;;;3.58;1.05;;;;;;;;;;5091497;28;20016;-50
2022/04/09 12:56:08;;;;;;;3.75;1.15;;;;;;;;;;5091476;28;20020;-51
2022/04/09 12:58:35;;;;;;;1.50;1.05;;;;;;;;;;5090983;28;20099;-51
2022/04/09 13:01:01;;;;;;;1.83;1.33;;;;;;;;;;5091345;28;20024;-52
2022/04/09 13:03:27;;;;;;;1.77;0.85;;;;;;;;;;5090827;28;20368;-48
2022/04/09 13:05:53;;;;;;;2.88;0.80;;;;;;;;;;5091135;28;20119;-48
2022/04/09 13:08:19;;;;;;;2.47;1.15;;;;;;;;;;5090923;28;20416;-52
2022/04/09 13:10:45;;;;;;;1.40;0.93;;;;;;;;;;5091787;28;20024;-52
2022/04/09 13:13:11;;;;;;;2.42;1.08;;;;;;;;;;5097762;28;20020;-62
2022/04/09 13:15:37;;;;;;;2.90;1.45;;;;;;;;;;5111666;28;20050;-51
2022/04/09 13:18:03;;;;;;;3.35;0.90;;;;;;;;;;5094334;28;20048;-51
2022/04/09 13:20:29;;;;;;;2.30;1.13;;;;;;;;;;5090089;28;20024;-49
2022/04/09 13:22:55;;;;;;;2.58;0.80;;;;;;;;;;5090858;28;20107;-48
2022/04/09 13:25:21;;;;;;;5.40;1.17;;;;;;;;;;5090049;28;20185;-52
2022/04/09 13:27:49;;;;;;;1.42;1.00;;;;;;;;;;5090760;28;20035;-51
2022/04/09 13:30:15;;;;;;;1.60;0.90;;;;;;;;;;5090012;28;20024;-52
2022/04/09 13:32:41;;;;;;;2.42;0.90;;;;;;;;;;5094425;28;20786;-48
2022/04/09 13:35:08;;;;;;;2.72;0.98;;;;;;;;;;5093738;28;20081;-51
2022/04/09 13:37:34;;;;;;;3.25;1.25;;;;;;;;;;5093532;28;20034;-49
2022/04/09 13:40:00;;;;;;;2.75;0.88;;;;;;;;;;5094463;28;20020;-49
2022/04/09 13:42:26;;;;;;;4.30;1.55;;;;;;;;;;5093927;28;20390;-49
2022/04/09 13:44:52;;;;;;;4.65;1.17;;;;;;;;;;5112883;28;20065;-51
2022/04/09 13:47:18;;;;;;;2.47;1.00;;;;;;;;;;5093695;28;20099;-48
2022/04/09 13:49:44;;;;;;;4.25;1.58;;;;;;;;;;5094206;28;20081;-50
2022/04/09 13:52:11;;;;;;;3.25;1.08;;;;;;;;;;5093774;28;20172;-62
2022/04/09 13:54:38;;;;;;;8.18;1.35;;;;;;;;;;5093958;28;20028;-49
2022/04/09 13:57:05;;;;;;;1.95;1.00;;;;;;;;;;5093639;28;20074;-53
2022/04/09 13:59:31;;;;;;;1.40;0.82;;;;;;;;;;5093525;28;20027;-51
2022/04/09 14:01:57;;;;;;;4.72;1.10;;;;;;;;;;5093696;28;20021;-48
2022/04/09 14:04:23;;;;;;;1.50;0.90;;;;;;;;;;5093189;28;20032;-48
2022/04/09 14:06:49;;;;;;;2.75;1.17;;;;;;;;;;5093828;28;20119;-49
2022/04/09 14:09:16;;;;;;;2.67;1.10;;;;;;;;;;5093049;28;20446;-51
2022/04/09 14:11:42;;;;;;;1.52;0.93;;;;;;;;;;5093716;28;20032;-51
2022/04/09 14:14:09;;;;;;;2.08;1.20;;;;;;;;;;5108546;28;20048;-48
2022/04/09 14:16:35;;;;;;;1.35;0.75;;;;;;;;;;5113345;28;20022;-53
2022/04/09 14:19:01;;;;;;;1.02;0.65;;;;;;;;;;5113890;28;20031;-49
2022/04/09 14:21:28;;;;;;;1.17;0.90;;;;;;;;;;5113098;28;20027;-48
2022/04/09 14:23:54;;;;;;;3.55;1.00;;;;;;;;;;5113695;28;20377;-49
2022/04/09 14:26:20;;;;;;;2.65;1.02;;;;;;;;;;5111547;28;20023;-52
2022/04/09 14:28:46;;;;;;;4.30;1.30;;;;;;;;;;5113817;27;20034;-54
2022/04/09 14:31:12;;;;;;;2.97;0.93;;;;;;;;;;5113170;28;20534;-62
2022/04/09 14:33:39;;;;;;;2.35;1.20;;;;;;;;;;5113386;28;20035;-50
2022/04/09 14:36:06;;;;;;;1.27;0.70;;;;;;;;;;5113624;28;20051;-51
2022/04/09 14:38:32;;;;;;;1.92;0.70;;;;;;;;;;5112588;28;20471;-49
2022/04/09 14:40:58;;;;;;;2.80;0.98;;;;;;;;;;5092069;28;20027;-51
2022/04/09 14:43:25;;;;;;;1.75;0.70;;;;;;;;;;5100387;28;20103;-52
2022/04/09 14:45:51;;;;;;;2.08;0.80;;;;;;;;;;5103422;28;20101;-48
2022/04/09 14:48:17;;;;;;;2.38;0.82;;;;;;;;;;5092042;28;20024;-53
2022/04/09 14:50:43;;;;;;;1.98;0.90;;;;;;;;;;5092858;28;20022;-52
2022/04/09 14:53:10;;;;;;;2.35;0.90;;;;;;;;;;5092816;28;20457;-49
2022/04/09 14:55:36;;;;;;;2.38;1.02;;;;;;;;;;5092128;28;20499;-52
2022/04/09 14:58:02;;;;;;;4.03;1.20;;;;;;;;;;5092544;28;20062;-49
2022/04/09 15:00:28;;;;;;;3.60;1.35;;;;;;;;;;5092261;28;20127;-52
2022/04/09 15:02:54;;;;;;;1.70;0.93;;;;;;;;;;5092960;28;20441;-51
2022/04/09 15:05:20;;;;;;;3.35;0.95;;;;;;;;;;5091613;28;20373;-51
2022/04/09 15:07:46;;;;;;;3.40;1.55;;;;;;;;;;5092144;28;20031;-51
2022/04/09 15:10:13;;;;;;;1.52;0.95;;;;;;;;;;5092251;28;20016;-62
2022/04/09 15:12:39;;;;;;;2.38;1.02;;;;;;;;;;5094549;28;20094;-53
2022/04/09 15:15:05;;;;;;;3.25;1.23;;;;;;;;;;5113020;28;20031;-53
2022/04/09 15:17:31;;;;;;;2.42;0.90;;;;;;;;;;5111660;28;20088;-51
2022/04/09 15:19:57;;;;;;;3.15;1.02;;;;;;;;;;5112970;28;20035;-53
2022/04/09 15:22:24;;;;;;;1.50;0.80;;;;;;;;;;5111831;28;20028;-52
2022/04/09 15:24:50;;;;;;;2.13;1.00;;;;;;;;;;5112485;28;20031;-50
2022/04/09 15:27:16;;;;;;;3.80;1.40;;;;;;;;;;5111799;28;20063;-52
2022/04/09 15:29:42;;;;;;;1.58;0.70;;;;;;;;;;5112701;28;20034;-49
2022/04/09 15:32:12;;;;;;;3.20;1.00;;;;;;;;;;5112547;28;20034;-49
2022/04/09 15:34:38;;;;;;;2.70;0.80;;;;;;;;;;5111953;28;20480;-49
2022/04/09 15:37:05;;;;;;;2.33;1.33;;;;;;;;;;5112431;28;20059;-53
2022/04/09 15:39:32;;;;;;;1.65;0.70;;;;;;;;;;5111711;28;20400;-55
2022/04/09 15:41:58;;;;;;;2.38;1.00;;;;;;;;;;5112656;28;20046;-49
2022/04/09 15:44:25;;;;;;;5.18;1.25;;;;;;;;;;5110812;28;20143;-49
2022/04/09 15:46:54;;;;;;;1.70;0.85;;;;;;;;;;5094451;28;20058;-55
2022/04/09 15:49:24;;;;;;;1.73;0.90;;;;;;;;;;5091435;28;20020;-52
2022/04/09 15:51:50;;;;;;;3.70;0.90;;;;;;;;;;5091720;28;20027;-52
2022/04/09 15:54:17;;;;;;;1.85;1.20;;;;;;;;;;5089917;28;20110;-49
2022/04/09 15:56:43;;;;;;;1.90;0.77;;;;;;;;;;5091851;28;20062;-52
2022/04/09 15:59:09;;;;;;;4.13;1.30;;;;;;;;;;5092384;28;20028;-48
2022/04/09 16:01:35;;;;;;;2.75;1.20;;;;;;;;;;5091195;28;20347;-51
2022/04/09 16:04:01;;;;;;;2.33;1.08;;;;;;;;;;5091407;28;20051;-49
2022/04/09 16:06:27;;;;;;;1.98;1.05;;;;;;;;;;5090212;28;20526;-51
2022/04/09 16:08:54;;;;;;;2.10;1.25;;;;;;;;;;5091030;28;20110;-58
2022/04/09 16:11:20;;;;;;;2.20;0.90;;;;;;;;;;5090256;28;20523;-49
2022/04/09 16:13:46;;;;;;;2.45;0.80;;;;;;;;;;5090622;28;20039;-50
2022/04/09 16:16:12;;;;;;;1.17;0.80;;;;;;;;;;5091338;28;20393;-63
2022/04/09 16:18:38;;;;;;;1.52;0.77;;;;;;;;;;5090916;28;20457;-52
2022/04/09 16:21:04;;;;;;;2.03;0.85;;;;;;;;;;5091228;28;20024;-54
2022/04/09 16:23:32;;;;;;;1.35;0.88;;;;;;;;;;5090375;28;20035;-52
2022/04/09 16:25:58;;;;;;;1.52;0.90;;;;;;;;;;5091345;28;20491;-52
2022/04/09 16:28:24;;;;;;;1.85;0.82;;;;;;;;;;5090317;28;20087;-52
2022/04/09 16:30:50;;;;;;;1.42;0.80;;;;;;;;;;5092374;28;20095;-47
2022/04/09 16:33:16;;;;;;;1.92;0.80;;;;;;;;;;5090495;28;20097;-50
2022/04/09 16:35:42;;;;;;;3.30;1.40;;;;;;;;;;5091435;28;20050;-51
2022/04/09 16:38:08;;;;;;;1.33;0.65;;;;;;;;;;5090753;28;20793;-49
2022/04/09 16:40:34;;;;;;;2.63;1.10;;;;;;;;;;5090511;28;20296;-46
2022/04/09 16:43:01;;;;;;;2.60;1.02;;;;;;;;;;5096303;28;20220;-47
2022/04/09 16:45:27;;;;;;;2.67;0.88;;;;;;;;;;5097896;28;20052;-47
2022/04/09 16:47:53;;;;;;;1.88;0.73;;;;;;;;;;5090667;28;20444;-49
2022/04/09 16:50:19;;;;;;;1.25;0.80;;;;;;;;;;5089941;28;20020;-48
2022/04/09 16:52:46;;;;;;;2.55;0.98;;;;;;;;;;5090927;28;20081;-52
2022/04/09 16:55:12;;;;;;;1.90;0.70;;;;;;;;;;5090594;28;20051;-59
2022/04/09 16:57:39;;;;;;;2.63;0.80;;;;;;;;;;5090196;28;20035;-51
2022/04/09 17:00:05;;;;;;;1.75;0.60;;;;;;;;;;5090786;28;20043;-52
2022/04/09 17:02:31;;;;;;;1.55;0.80;;;;;;;;;;5089816;28;20020;-58
2022/04/09 17:04:57;;;;;;;2.03;0.80;;;;;;;;;;5090533;28;20434;-50
2022/04/09 17:07:23;;;;;;;1.48;0.85;;;;;;;;;;5093445;28;20020;-50
2022/04/09 17:09:49;;;;;;;1.00;0.75;;;;;;;;;;5094690;28;20416;-50
2022/04/09 17:12:16;;;;;;;1.15;0.82;;;;;;;;;;5093814;28;20059;-61
2022/04/09 17:14:42;;;;;;;1.17;0.60;;;;;;;;;;5113784;28;20040;-48
2022/04/09 17:17:08;;;;;;;1.75;0.80;;;;;;;;;;5114673;28;20083;-49
2022/04/09 17:19:34;;;;;;;2.67;1.60;;;;;;;;;;5113724;28;20248;-49
2022/04/09 17:22:04;;;;;;;1.02;0.70;;;;;;;;;;5113910;28;20031;-49
2022/04/09 17:24:30;;;;;;;3.03;0.88;;;;;;;;;;5113497;28;20093;-51
2022/04/09 17:26:56;;;;;;;1.50;0.80;;;;;;;;;;5114906;28;20372;-48
2022/04/09 17:29:22;;;;;;;0.93;0.68;;;;;;;;;;5113910;28;20023;-49
2022/04/09 17:31:48;;;;;;;1.35;0.88;;;;;;;;;;5115045;28;20031;-51
2022/04/09 17:34:14;;;;;;;2.00;0.82;;;;;;;;;;5114461;28;20160;-62
2022/04/09 17:36:42;;;;;;;2.88;0.80;;;;;;;;;;5114560;28;20020;-51
2022/04/09 17:39:08;;;;;;;1.55;0.70;;;;;;;;;;5114612;28;20384;-52
2022/04/09 17:41:34;;;;;;;2.80;0.85;;;;;;;;;;5112478;28;20015;-49
2022/04/09 17:44:02;;;;;;;2.90;0.90;;;;;;;;;;5114422;28;20059;-51
2022/04/09 17:46:28;;;;;;;3.08;1.08;;;;;;;;;;5099228;28;20099;-50
2022/04/09 17:48:54;;;;;;;1.30;0.73;;;;;;;;;;5093876;28;20024;-48
2022/04/09 17:51:20;;;;;;;3.42;0.85;;;;;;;;;;5093262;28;20024;-50
2022/04/09 17:53:46;;;;;;;2.95;0.85;;;;;;;;;;5093971;28;20073;-48
2022/04/09 17:56:12;;;;;;;1.45;0.88;;;;;;;;;;5093901;28;20077;-57
2022/04/09 17:58:39;;;;;;;2.38;1.20;;;;;;;;;;5093278;28;20429;-50
2022/04/09 18:01:06;;;;;;;1.95;0.82;;;;;;;;;;5093824;28;20020;-49
2022/04/09 18:03:32;;;;;;;2.88;1.30;;;;;;;;;;5092671;28;20020;-50
2022/04/09 18:05:58;;;;;;;2.28;0.80;;;;;;;;;;5094091;28;20424;-48
2022/04/09 18:08:24;;;;;;;1.27;0.80;;;;;;;;;;5092941;28;20050;-48
2022/04/09 18:10:50;;;;;;;1.88;0.90;;;;;;;;;;5093488;28;20024;-52
2022/04/09 18:13:16;;;;;;;2.30;1.05;;;;;;;;;;5092756;28;20023;-62
2022/04/09 18:15:42;;;;;;;1.20;0.90;;;;;;;;;;5093808;28;20538;-54
2022/04/09 18:18:08;;;;;;;2.58;1.00;;;;;;;;;;5093308;28;20020;-52
2022/04/09 18:20:34;;;;;;;2.30;1.20;;;;;;;;;;5092820;28;20139;-47
2022/04/09 18:23:00;;;;;;;1.70;1.00;;;;;;;;;;5093801;28;20028;-47
2022/04/09 18:25:26;;;;;;;2.33;1.33;;;;;;;;;;5093161;28;20036;-49
2022/04/09 18:27:53;;;;;;;1.67;1.10;;;;;;;;;;5093550;28;20039;-54
2022/04/09 18:30:22;;;;;;;2.08;0.90;;;;;;;;;;5093324;28;20020;-51
2022/04/09 18:32:49;;;;;;;1.52;0.98;;;;;;;;;;5093414;28;20427;-51
2022/04/09 18:35:15;;;;;;;1.40;0.85;;;;;;;;;;5092815;28;20111;-49
2022/04/09 18:37:42;;;;;;;1.85;0.82;;;;;;;;;;5093654;28;20027;-49
2022/04/09 18:40:09;;;;;;;2.00;0.90;;;;;;;;;;5093605;28;20381;-51
2022/04/09 18:42:35;;;;;;;1.35;0.93;;;;;;;;;;5092394;28;20020;-50
2022/04/09 18:45:01;;;;;;;8.13;1.27;;;;;;;;;;5091479;28;20056;-52
2022/04/09 18:47:27;;;;;;;4.63;1.50;;;;;;;;;;5092454;28;20024;-48
2022/04/09 18:49:53;;;;;;;2.50;0.98;;;;;;;;;;5092458;28;20565;-53
2022/04/09 18:52:20;;;;;;;3.13;1.17;;;;;;;;;;5092036;28;20091;-52
2022/04/09 18:54:46;;;;;;;2.90;1.15;;;;;;;;;;5092281;28;20036;-51
2022/04/09 18:57:12;;;;;;;3.28;1.10;;;;;;;;;;5092447;28;20024;-56
2022/04/09 18:59:38;;;;;;;3.40;1.10;;;;;;;;;;5090965;28;20085;-55
2022/04/09 19:02:04;;;;;;;3.28;1.50;;;;;;;;;;5091143;28;20020;-51
2022/04/09 19:04:30;;;;;;;2.97;1.00;;;;;;;;;;5090847;28;20024;-53
2022/04/09 19:06:56;;;;;;;4.20;1.40;;;;;;;;;;5092358;28;20065;-48
2022/04/09 19:09:22;;;;;;;5.43;1.10;;;;;;;;;;5091431;28;20048;-47
2022/04/09 19:11:48;;;;;;;6.20;1.23;;;;;;;;;;5092092;28;20051;-49
2022/04/09 19:14:14;;;;;;;6.00;1.10;;;;;;;;;;5091737;28;20066;-62
2022/04/09 19:16:41;;;;;;;5.78;1.27;;;;;;;;;;5092381;28;20032;-48
2022/04/09 19:19:07;;;;;;;4.03;1.23;;;;;;;;;;5091957;28;20426;-49
2022/04/09 19:21:33;;;;;;;6.32;1.80;;;;;;;;;;5088496;28;20186;-49
2022/04/09 19:23:59;;;;;;;4.50;1.50;;;;;;;;;;5091534;28;20012;-48
2022/04/09 19:26:25;;;;;;;2.38;1.30;;;;;;;;;;5091124;28;20016;-53
2022/04/09 19:28:51;;;;;;;4.57;1.35;;;;;;;;;;5090917;28;20020;-51
2022/04/09 19:31:18;;;;;;;3.25;1.00;;;;;;;;;;5090861;28;20024;-51
2022/04/09 19:33:47;;;;;;;3.53;1.30;;;;;;;;;;5092038;28;20055;-49
2022/04/09 19:36:14;;;;;;;3.10;1.13;;;;;;;;;;5092084;28;20026;-60
2022/04/09 19:38:40;;;;;;;7.13;1.70;;;;;;;;;;5092019;28;20031;-48
2022/04/09 19:41:06;;;;;;;7.65;1.15;;;;;;;;;;5092006;28;20020;-49
2022/04/09 19:43:32;;;;;;;5.60;1.05;;;;;;;;;;5091505;28;20031;-47
2022/04/09 19:45:59;;;;;;;4.93;1.52;;;;;;;;;;5090118;28;20440;-51
2022/04/09 19:48:25;;;;;;;5.75;1.27;;;;;;;;;;5090954;28;20412;-49
2022/04/09 19:50:51;;;;;;;7.90;2.38;;;;;;;;;;5090550;28;20504;-53
2022/04/09 19:53:17;;;;;;;4.05;1.13;;;;;;;;;;5091367;28;20111;-51
2022/04/09 19:55:44;;;;;;;3.60;1.13;;;;;;;;;;5091860;28;20028;-51
2022/04/09 19:58:12;;;;;;;2.00;1.10;;;;;;;;;;5091138;28;20435;-48
2022/04/09 20:00:38;;;;;;;5.75;1.40;;;;;;;;;;5090672;28;20027;-50
2022/04/09 20:03:04;;;;;;;6.63;1.27;;;;;;;;;;5092439;28;20016;-48
2022/04/09 20:05:30;;;;;;;1.95;1.10;;;;;;;;;;5091535;28;20056;-49
2022/04/09 20:07:59;;;;;;;6.60;1.15;;;;;;;;;;5092069;28;20024;-47
2022/04/09 20:10:26;;;;;;;3.63;1.35;;;;;;;;;;5090835;28;20024;-51
2022/04/09 20:12:52;;;;;;;4.38;1.20;;;;;;;;;;5090285;28;20059;-54
2022/04/09 20:15:18;;;;;;;3.17;1.40;;;;;;;;;;5090091;28;20077;-51
2022/04/09 20:17:44;;;;;;;2.55;1.17;;;;;;;;;;5090947;28;20059;-49
2022/04/09 20:20:11;;;;;;;2.10;0.95;;;;;;;;;;5088405;28;20114;-47
2022/04/09 20:22:38;;;;;;;1.38;0.70;;;;;;;;;;5088616;28;20359;-48
2022/04/09 20:25:04;;;;;;;4.35;0.80;;;;;;;;;;5090956;28;20028;-50
2022/04/09 20:27:30;;;;;;;2.85;1.10;;;;;;;;;;5089140;28;20019;-50
2022/04/09 20:29:57;;;;;;;3.25;1.10;;;;;;;;;;5090248;28;20024;-48
2022/04/09 20:32:23;;;;;;;8.63;1.65;;;;;;;;;;5089666;28;20423;-49
2022/04/09 20:34:49;;;;;;;2.08;1.02;;;;;;;;;;5090375;28;20060;-49
2022/04/09 20:37:15;;;;;;;2.70;1.10;;;;;;;;;;5089944;28;20016;-52
2022/04/09 20:39:41;;;;;;;2.70;1.33;;;;;;;;;;5090251;28;20024;-48
2022/04/09 20:42:07;;;;;;;5.40;1.20;;;;;;;;;;5091033;28;20039;-49
2022/04/09 20:44:33;;;;;;;2.58;1.65;;;;;;;;;;5087672;28;20048;-49
2022/04/09 20:47:01;;;;;;;3.47;1.38;;;;;;;;;;5090329;28;20027;-49
2022/04/09 20:49:27;;;;;;;4.25;1.10;;;;;;;;;;5089988;28;20043;-49
2022/04/09 20:51:54;;;;;;;4.05;1.13;;;;;;;;;;5090532;28;20017;-49
2022/04/09 20:54:21;;;;;;;2.78;1.48;;;;;;;;;;5089649;28;20031;-50
2022/04/09 20:56:52;;;;;;;2.60;1.20;;;;;;;;;;5090582;28;20020;-52
2022/04/09 20:59:21;;;;;;;2.97;1.10;;;;;;;;;;5090091;28;20012;-48
2022/04/09 21:01:48;;;;;;;1.92;1.23;;;;;;;;;;5090727;28;20020;-50
2022/04/09 21:04:15;;;;;;;1.25;1.00;;;;;;;;;;5089770;28;20028;-51
2022/04/09 21:06:41;;;;;;;1.80;1.05;;;;;;;;;;5088964;28;20028;-50
2022/04/09 21:09:07;;;;;;;3.17;0.90;;;;;;;;;;5090407;28;20514;-51
2022/04/09 21:11:33;;;;;;;2.78;1.10;;;;;;;;;;5089976;28;20164;-49
2022/04/09 21:14:00;;;;;;;1.92;1.00;;;;;;;;;;5090579;28;20028;-49
2022/04/09 21:16:27;;;;;;;3.08;1.20;;;;;;;;;;5089281;28;20119;-51
2022/04/09 21:18:54;;;;;;;9.43;1.00;;;;;;;;;;5091510;28;20073;-48
2022/04/09 21:21:20;;;;;;;3.15;1.10;;;;;;;;;;5090711;28;20099;-52
2022/04/09 21:23:46;;;;;;;2.92;1.38;;;;;;;;;;5091627;28;20107;-49
2022/04/09 21:26:12;;;;;;;2.40;1.08;;;;;;;;;;5091424;28;20039;-48
2022/04/09 21:28:38;;;;;;;1.45;0.95;;;;;;;;;;5090612;28;20054;-48
2022/04/09 21:31:04;;;;;;;2.45;0.80;;;;;;;;;;5091314;28;20426;-49
2022/04/09 21:33:31;;;;;;;5.28;1.60;;;;;;;;;;5090682;28;20051;-50
2022/04/09 21:35:57;;;;;;;2.50;1.30;;;;;;;;;;5091787;28;20028;-48
2022/04/09 21:38:23;;;;;;;1.40;0.90;;;;;;;;;;5090710;28;20530;-48
2022/04/09 21:40:49;;;;;;;3.28;1.02;;;;;;;;;;5091593;28;20080;-52
2022/04/09 21:43:15;;;;;;;1.52;0.73;;;;;;;;;;5091084;28;20022;-59
2022/04/09 21:45:41;;;;;;;1.60;1.00;;;;;;;;;;5091108;28;20511;-48
2022/04/09 21:48:08;;;;;;;2.90;0.88;;;;;;;;;;5091252;28;20024;-48
2022/04/09 21:50:34;;;;;;;2.08;1.00;;;;;;;;;;5090410;28;20208;-48
2022/04/09 21:53:01;;;;;;;3.22;1.10;;;;;;;;;;5093825;28;20028;-51
2022/04/09 21:55:27;;;;;;;1.15;0.90;;;;;;;;;;5094376;28;20059;-47
2022/04/09 21:57:54;;;;;;;1.98;1.08;;;;;;;;;;5093539;28;20436;-50
2022/04/09 22:00:38;;;;;;;3.00;1.10;;;;;;;;;;5094416;28;20028;-50
2022/04/09 22:03:04;;;;;;;2.00;0.98;;;;;;;;;;5094976;28;20503;-49
2022/04/09 22:05:30;;;;;;;2.85;1.10;;;;;;;;;;5094016;28;20067;-49
2022/04/09 22:07:57;;;;;;;2.20;1.00;;;;;;;;;;5094789;28;20020;-49
2022/04/09 22:10:23;;;;;;;1.65;0.80;;;;;;;;;;5093926;28;20077;-48
2022/04/09 22:12:48;;;;;;;3.05;1.10;;;;;;;;;;5094545;28;20027;-48
2022/04/09 22:15:15;;;;;;;2.15;1.08;;;;;;;;;;5094274;28;20032;-61
2022/04/09 22:17:41;;;;;;;3.42;1.10;;;;;;;;;;5094059;28;20031;-51
2022/04/09 22:20:07;;;;;;;1.83;0.90;;;;;;;;;;5094664;28;20024;-47
2022/04/09 22:22:33;;;;;;;1.60;0.95;;;;;;;;;;5093773;28;20021;-49
2022/04/09 22:24:59;;;;;;;1.75;1.10;;;;;;;;;;5094585;28;20469;-49
2022/04/09 22:27:26;;;;;;;3.08;0.82;;;;;;;;;;5093644;28;20069;-47
2022/04/09 22:29:52;;;;;;;2.40;0.95;;;;;;;;;;5094525;28;20478;-49
2022/04/09 22:32:18;;;;;;;1.27;0.73;;;;;;;;;;5093463;28;20027;-58
2022/04/09 22:34:44;;;;;;;1.70;1.00;;;;;;;;;;5094294;28;20457;-48
2022/04/09 22:37:10;;;;;;;3.28;1.23;;;;;;;;;;5094166;28;20028;-48
2022/04/09 22:39:36;;;;;;;2.38;0.93;;;;;;;;;;5093328;28;20016;-52
2022/04/09 22:42:02;;;;;;;1.55;0.90;;;;;;;;;;5094252;28;20044;-46
2022/04/09 22:44:29;;;;;;;2.20;1.10;;;;;;;;;;5092725;28;20473;-47
2022/04/09 22:46:56;;;;;;;1.73;0.93;;;;;;;;;;5094068;28;20020;-49
2022/04/09 22:49:22;;;;;;;1.15;0.85;;;;;;;;;;5093084;28;20020;-52
2022/04/09 22:51:48;;;;;;;1.58;0.90;;;;;;;;;;5093985;28;20031;-48
2022/04/09 22:54:14;;;;;;;2.20;0.80;;;;;;;;;;5093890;28;20024;-46
2022/04/09 22:56:40;;;;;;;1.38;0.75;;;;;;;;;;5093209;28;20544;-49
2022/04/09 22:59:06;;;;;;;1.85;0.95;;;;;;;;;;5093847;28;20046;-49
2022/04/09 23:01:32;;;;;;;2.55;0.80;;;;;;;;;;5092708;28;20072;-49
2022/04/09 23:03:58;;;;;;;2.30;0.95;;;;;;;;;;5093145;28;20525;-51
2022/04/09 23:06:24;;;;;;;2.08;0.90;;;;;;;;;;5092985;28;20041;-48
2022/04/09 23:08:50;;;;;;;2.17;0.73;;;;;;;;;;5093526;28;20089;-47
2022/04/09 23:11:16;;;;;;;2.17;0.95;;;;;;;;;;5093523;28;20024;-58
2022/04/09 23:13:42;;;;;;;1.85;0.93;;;;;;;;;;5092939;28;20036;-50
2022/04/09 23:16:08;;;;;;;2.28;1.00;;;;;;;;;;5093331;28;20034;-47
2022/04/09 23:18:34;;;;;;;2.13;0.90;;;;;;;;;;5092497;28;20438;-49
2022/04/09 23:21:01;;;;;;;0.98;0.70;;;;;;;;;;5093189;28;20457;-47
2022/04/09 23:23:27;;;;;;;2.72;1.05;;;;;;;;;;5092514;28;20063;-51
2022/04/09 23:25:53;;;;;;;0.85;0.70;;;;;;;;;;5093282;28;20039;-49